createdAt,value
2023-02-13T00:02:25.204Z,13.98
2023-02-13T00:04:51.931Z,12.57
2023-02-13T00:07:18.516Z,12.68
2023-02-13T00:09:45.017Z,14.32
2023-02-13T00:12:11.518Z,15.82
2023-02-13T00:14:39.125Z,13.30
2023-02-13T00:17:06.601Z,13.57
2023-02-13T00:19:33.433Z,13.55
2023-02-13T00:21:59.922Z,14.95
2023-02-13T00:24:26.666Z,15.57
2023-02-13T00:26:53.157Z,12.40
2023-02-13T00:29:19.811Z,13.57
2023-02-13T00:31:46.491Z,13.30
2023-02-13T00:34:13.133Z,16.15
2023-02-13T00:36:39.731Z,13.32
2023-02-13T00:39:06.240Z,13.82
2023-02-13T00:41:32.814Z,14.65
2023-02-13T00:43:59.373Z,13.40
2023-02-13T00:46:25.946Z,14.23
2023-02-13T00:48:52.470Z,12.52
2023-02-13T00:51:18.971Z,12.95
2023-02-13T00:53:45.442Z,12.02
2023-02-13T00:56:12.022Z,15.55
2023-02-13T00:58:39.226Z,14.20
2023-02-13T01:01:05.948Z,15.30
2023-02-13T01:03:32.508Z,14.40
2023-02-13T01:05:59.234Z,16.10
2023-02-13T01:08:28.253Z,14.57
2023-02-13T01:10:55.688Z,12.77
2023-02-13T01:13:22.467Z,14.95
2023-02-13T01:15:49.709Z,17.33
2023-02-13T01:18:19.064Z,16.77
2023-02-13T01:20:46.500Z,16.65
2023-02-13T01:23:13.135Z,17.15
2023-02-13T01:25:41.608Z,15.40
2023-02-13T01:28:08.338Z,14.05
2023-02-13T01:30:34.998Z,15.75
2023-02-13T01:33:01.680Z,13.73
2023-02-13T01:35:28.222Z,14.52
2023-02-13T01:37:54.975Z,15.63
2023-02-13T01:40:21.657Z,13.90
2023-02-13T01:42:48.196Z,14.50
2023-02-13T01:45:27.482Z,12.10
2023-02-13T01:47:56.722Z,13.07
2023-02-13T01:50:29.070Z,15.52
2023-02-13T01:53:09.552Z,13.40
2023-02-13T01:55:43.701Z,12.70
2023-02-13T01:58:12.814Z,16.42
2023-02-13T02:00:39.901Z,15.18
2023-02-13T02:03:13.762Z,16.42
2023-02-13T02:05:40.345Z,13.40
2023-02-13T02:08:10.510Z,13.77
2023-02-13T02:10:37.497Z,14.65
2023-02-13T02:13:18.603Z,14.18
2023-02-13T02:15:45.919Z,14.57
2023-02-13T02:18:17.561Z,12.75
2023-02-13T02:21:05.462Z,15.20
2023-02-13T02:23:50.564Z,14.85
2023-02-13T02:26:40.773Z,14.75
2023-02-13T02:29:16.257Z,13.05
2023-02-13T02:32:08.327Z,14.35
2023-02-13T02:34:45.509Z,13.40
2023-02-13T02:37:29.505Z,13.55
2023-02-13T02:40:51.518Z,13.00
2023-02-13T02:43:41.126Z,14.77
2023-02-13T02:46:24.419Z,14.25
2023-02-13T02:49:16.264Z,15.18
2023-02-13T02:52:20.065Z,13.85
2023-02-13T02:55:06.687Z,12.10
2023-02-13T02:57:57.373Z,15.80
2023-02-13T03:00:44.580Z,13.98
2023-02-13T03:03:38.413Z,14.85
2023-02-13T03:06:14.038Z,15.93
2023-02-13T03:09:02.343Z,15.63
2023-02-13T03:11:47.511Z,11.80
2023-02-13T03:14:17.938Z,15.38
2023-02-13T03:17:03.004Z,14.93
2023-02-13T03:20:20.841Z,13.35
2023-02-13T03:22:50.340Z,15.45
2023-02-13T03:25:51.934Z,15.38
2023-02-13T03:28:46.621Z,13.57
2023-02-13T03:31:27.486Z,16.30
2023-02-13T03:34:10.912Z,15.35
2023-02-13T03:37:07.194Z,16.55
2023-02-13T03:39:43.649Z,16.23
2023-02-13T03:42:23.718Z,15.15
2023-02-13T03:45:14.576Z,15.68
2023-02-13T03:47:42.600Z,17.30
2023-02-13T03:50:10.087Z,15.43
2023-02-13T03:52:46.135Z,16.65
2023-02-13T03:55:34.162Z,18.33
2023-02-13T03:58:24.296Z,14.02
2023-02-13T04:00:53.141Z,17.25
2023-02-13T04:03:26.432Z,17.13
2023-02-13T04:06:09.724Z,19.48
2023-02-13T04:08:36.288Z,20.00
2023-02-13T04:11:15.657Z,18.70
2023-02-13T04:13:59.828Z,25.48
2023-02-13T04:16:36.475Z,17.98
2023-02-13T04:19:03.804Z,22.02
2023-02-13T04:21:38.851Z,19.75
2023-02-13T04:24:05.579Z,23.38
2023-02-13T04:26:40.633Z,20.05
2023-02-13T04:29:10.168Z,19.77
2023-02-13T04:31:37.903Z,20.38
2023-02-13T04:34:04.414Z,21.65
2023-02-13T04:36:30.957Z,21.73
2023-02-13T04:38:58.450Z,21.50
2023-02-13T04:41:25.054Z,21.48
2023-02-13T04:43:52.494Z,21.02
2023-02-13T04:46:19.565Z,20.83
2023-02-13T04:48:46.057Z,18.17
2023-02-13T04:51:12.738Z,22.23
2023-02-13T04:53:39.294Z,19.85
2023-02-13T04:56:05.970Z,20.88
2023-02-13T04:58:32.468Z,23.95
2023-02-13T05:00:59.338Z,20.75
2023-02-13T05:03:26.039Z,22.98
2023-02-13T05:05:52.511Z,23.65
2023-02-13T05:08:18.988Z,23.15
2023-02-13T05:10:45.455Z,21.98
2023-02-13T05:13:12.300Z,19.15
2023-02-13T05:15:38.922Z,20.92
2023-02-13T05:18:05.652Z,16.00
2023-02-13T05:20:32.206Z,17.30
2023-02-13T05:23:28.464Z,16.73
2023-02-13T05:25:54.959Z,18.02
2023-02-13T05:28:40.139Z,16.52
2023-02-13T05:31:07.831Z,17.13
2023-02-13T05:33:34.379Z,15.63
2023-02-13T05:36:00.894Z,15.95
2023-02-13T05:38:27.558Z,15.52
2023-02-13T05:40:54.090Z,14.35
2023-02-13T05:43:20.852Z,12.43
2023-02-13T05:45:48.429Z,14.45
2023-02-13T05:48:14.932Z,15.80
2023-02-13T05:50:41.395Z,13.50
2023-02-13T05:53:07.965Z,12.52
2023-02-13T05:55:34.481Z,11.63
2023-02-13T05:58:00.964Z,12.90
2023-02-13T06:00:27.572Z,12.85
2023-02-13T06:02:54.418Z,12.32
2023-02-13T06:05:20.990Z,12.77
2023-02-13T06:07:47.595Z,14.98
2023-02-13T06:10:14.075Z,15.70
2023-02-13T06:12:40.605Z,16.02
2023-02-13T06:15:07.658Z,13.05
2023-02-13T06:17:34.242Z,13.25
2023-02-13T06:20:00.820Z,12.25
2023-02-13T06:22:27.385Z,12.10
2023-02-13T06:24:53.957Z,11.45
2023-02-13T06:27:20.529Z,11.65
2023-02-13T06:29:48.315Z,12.40
2023-02-13T06:32:14.868Z,12.82
2023-02-13T06:34:41.423Z,12.43
2023-02-13T06:37:07.931Z,12.30
2023-02-13T06:39:34.715Z,11.88
2023-02-13T06:42:01.210Z,12.05
2023-02-13T06:44:27.718Z,11.55
2023-02-13T06:46:54.179Z,10.30
2023-02-13T06:49:20.702Z,11.13
2023-02-13T06:51:47.220Z,12.13
2023-02-13T06:54:13.910Z,12.27
2023-02-13T06:56:42.461Z,11.10
2023-02-13T06:59:09.333Z,9.93
2023-02-13T07:01:36.034Z,11.52
2023-02-13T07:04:02.629Z,8.73
2023-02-13T07:06:29.184Z,11.27
2023-02-13T07:08:56.126Z,12.13
2023-02-13T07:11:24.678Z,9.80
2023-02-13T07:13:51.330Z,8.57
2023-02-13T07:16:17.910Z,8.32
2023-02-13T07:18:44.583Z,8.23
2023-02-13T07:21:11.493Z,8.15
2023-02-13T07:23:38.292Z,7.63
2023-02-13T07:26:05.981Z,8.43
2023-02-13T07:28:32.838Z,7.43
2023-02-13T07:31:04.471Z,7.32
2023-02-13T07:33:31.255Z,6.07
2023-02-13T07:35:57.927Z,7.43
2023-02-13T07:38:24.486Z,6.75
2023-02-13T07:40:51.228Z,6.32
2023-02-13T07:43:17.900Z,6.43
2023-02-13T07:45:44.546Z,4.55
2023-02-13T07:48:11.152Z,7.40
2023-02-13T07:50:37.707Z,7.47
2023-02-13T07:53:04.273Z,6.28
2023-02-13T07:55:32.830Z,4.53
2023-02-13T07:58:00.500Z,5.03
2023-02-13T08:00:27.169Z,6.00
2023-02-13T08:02:53.720Z,6.22
2023-02-13T08:05:20.239Z,5.88
2023-02-13T08:07:46.858Z,5.97
2023-02-13T08:10:32.632Z,7.25
2023-02-13T08:12:59.390Z,5.80
2023-02-13T08:15:26.237Z,5.55
2023-02-13T08:17:52.787Z,6.43
2023-02-13T08:20:19.577Z,6.05
2023-02-13T08:22:46.122Z,5.35
2023-02-13T08:25:13.274Z,5.97
2023-02-13T08:27:39.790Z,5.82
2023-02-13T08:30:07.086Z,5.93
2023-02-13T08:32:44.826Z,6.65
2023-02-13T08:35:14.992Z,7.75
2023-02-13T08:37:41.485Z,6.80
2023-02-13T08:40:11.388Z,8.35
2023-02-13T08:42:38.456Z,6.50
2023-02-13T08:45:05.963Z,6.03
2023-02-13T08:47:32.722Z,6.25
2023-02-13T08:49:59.375Z,6.65
2023-02-13T08:52:25.978Z,7.68
2023-02-13T08:54:52.593Z,6.25
2023-02-13T08:57:19.144Z,10.15
2023-02-13T08:59:58.122Z,7.30
2023-02-13T09:02:24.704Z,6.60
2023-02-13T09:04:51.288Z,7.07
2023-02-13T09:07:17.821Z,7.50
2023-02-13T09:09:44.367Z,6.97
2023-02-13T09:12:10.915Z,5.35
2023-02-13T09:14:44.757Z,5.90
2023-02-13T09:17:11.340Z,6.25
2023-02-13T09:19:38.155Z,5.60
2023-02-13T09:22:04.712Z,5.25
2023-02-13T09:24:31.202Z,7.13
2023-02-13T09:26:57.911Z,4.68
2023-02-13T09:29:24.472Z,7.05
2023-02-13T09:31:51.486Z,6.88
2023-02-13T09:34:19.048Z,6.00
2023-02-13T09:36:45.613Z,5.47
2023-02-13T09:39:12.136Z,5.45
2023-02-13T09:41:41.260Z,7.13
2023-02-13T09:44:35.945Z,7.80
2023-02-13T09:47:37.769Z,5.55
2023-02-13T09:50:22.549Z,5.00
2023-02-13T09:52:51.904Z,6.00
2023-02-13T09:55:21.540Z,4.70
2023-02-13T09:58:07.478Z,5.82
2023-02-13T10:00:46.686Z,5.78
2023-02-13T10:03:16.323Z,6.05
2023-02-13T10:05:48.204Z,4.90
2023-02-13T10:08:39.170Z,7.88
2023-02-13T10:11:36.646Z,5.78
2023-02-13T10:14:17.620Z,4.63
2023-02-13T10:17:01.312Z,6.00
2023-02-13T10:19:47.263Z,5.63
2023-02-13T10:22:17.350Z,4.47
2023-02-13T10:24:50.732Z,4.45
2023-02-13T10:27:22.252Z,4.32
2023-02-13T10:30:12.607Z,5.78
2023-02-13T10:33:18.405Z,4.72
2023-02-13T10:35:48.842Z,4.18
2023-02-13T10:38:17.881Z,5.32
2023-02-13T10:41:25.457Z,5.05
2023-02-13T10:44:19.959Z,4.38
2023-02-13T10:47:25.946Z,5.38
2023-02-13T10:50:27.299Z,6.00
2023-02-13T10:53:22.415Z,5.07
2023-02-13T10:56:01.529Z,5.38
2023-02-13T10:58:43.096Z,5.80
2023-02-13T11:01:31.338Z,4.13
2023-02-13T11:04:12.620Z,6.82
2023-02-13T11:07:00.139Z,4.47
2023-02-13T11:09:27.500Z,5.55
2023-02-13T11:11:54.404Z,5.10
2023-02-13T11:14:23.560Z,5.50
2023-02-13T11:16:56.456Z,4.15
2023-02-13T11:19:30.911Z,3.95
2023-02-13T11:22:36.421Z,4.45
2023-02-13T11:25:22.576Z,3.53
2023-02-13T11:27:54.282Z,7.18
2023-02-13T11:30:23.948Z,4.47
2023-02-13T11:33:04.030Z,4.30
2023-02-13T11:35:36.732Z,4.63
2023-02-13T11:38:24.206Z,5.22
2023-02-13T11:41:06.822Z,4.25
2023-02-13T11:43:44.592Z,5.90
2023-02-13T11:46:19.785Z,3.92
2023-02-13T11:48:56.898Z,3.40
2023-02-13T11:51:38.704Z,4.85
2023-02-13T11:54:05.605Z,4.70
2023-02-13T11:57:04.117Z,4.60
2023-02-13T11:59:34.283Z,5.28
2023-02-13T12:02:21.955Z,5.18
2023-02-13T12:05:20.441Z,5.43
2023-02-13T12:07:47.401Z,4.95
2023-02-13T12:10:30.008Z,5.25
2023-02-13T12:12:59.444Z,6.50
2023-02-13T12:15:28.723Z,5.75
2023-02-13T12:18:29.741Z,5.55
2023-02-13T12:21:02.149Z,5.90
2023-02-13T12:23:45.601Z,5.45
2023-02-13T12:26:26.878Z,7.35
2023-02-13T12:29:09.239Z,5.47
2023-02-13T12:31:55.589Z,6.90
2023-02-13T12:34:52.332Z,8.18
2023-02-13T12:37:45.503Z,5.72
2023-02-13T12:40:24.686Z,5.10
2023-02-13T12:43:04.173Z,4.43
2023-02-13T12:45:58.273Z,5.18
2023-02-13T12:48:31.111Z,4.75
2023-02-13T12:51:19.334Z,6.05
2023-02-13T12:53:56.751Z,4.85
2023-02-13T12:56:33.325Z,4.55
2023-02-13T12:59:21.508Z,4.07
2023-02-13T13:02:22.276Z,3.40
2023-02-13T13:05:17.580Z,5.18
2023-02-13T13:07:48.403Z,2.88
2023-02-13T13:10:32.694Z,5.03
2023-02-13T13:13:17.874Z,3.92
2023-02-13T13:15:57.103Z,4.85
2023-02-13T13:18:36.252Z,4.72
2023-02-13T13:21:37.050Z,4.90
2023-02-13T13:24:27.155Z,5.10
2023-02-13T13:26:57.363Z,4.40
2023-02-13T13:29:28.032Z,5.43
2023-02-13T13:31:58.665Z,6.43
2023-02-13T13:34:26.799Z,5.53
2023-02-13T13:37:05.372Z,5.80
2023-02-13T13:39:47.851Z,4.80
2023-02-13T13:42:19.809Z,6.85
2023-02-13T13:45:22.716Z,6.05
2023-02-13T13:47:57.926Z,5.30
2023-02-13T13:50:26.723Z,6.25
2023-02-13T13:53:11.964Z,5.90
2023-02-13T13:55:50.561Z,10.20
2023-02-13T13:58:33.936Z,5.05
2023-02-13T14:01:30.384Z,5.70
2023-02-13T14:03:58.998Z,5.57
2023-02-13T14:06:48.587Z,7.13
2023-02-13T14:09:41.806Z,5.68
2023-02-13T14:12:34.269Z,5.38
2023-02-13T14:15:00.924Z,6.57
2023-02-13T14:17:45.922Z,13.52
2023-02-13T14:20:26.503Z,9.07
2023-02-13T14:22:53.211Z,6.20
2023-02-13T14:25:25.351Z,5.78
2023-02-13T14:28:02.960Z,7.05
2023-02-13T14:30:36.019Z,4.75
2023-02-13T14:33:22.873Z,8.88
2023-02-13T14:36:00.356Z,6.05
2023-02-13T14:38:27.928Z,5.55
2023-02-13T14:40:55.325Z,5.97
2023-02-13T14:43:23.346Z,5.35
2023-02-13T14:45:55.964Z,5.57
2023-02-13T14:48:29.578Z,5.35
2023-02-13T14:50:57.710Z,5.25
2023-02-13T14:53:29.031Z,5.28
2023-02-13T14:56:25.139Z,5.85
2023-02-13T14:58:51.580Z,6.05
2023-02-13T15:01:29.578Z,5.70
2023-02-13T15:04:32.424Z,5.00
2023-02-13T15:07:02.403Z,5.30
2023-02-13T15:09:38.893Z,5.78
2023-02-13T15:12:25.344Z,5.47
2023-02-13T15:14:51.906Z,5.18
2023-02-13T15:17:21.123Z,5.90
2023-02-13T15:19:51.771Z,7.07
2023-02-13T15:22:22.531Z,5.30
2023-02-13T15:24:50.118Z,5.22
2023-02-13T15:27:34.375Z,6.55
2023-02-13T15:30:16.207Z,6.40
2023-02-13T15:32:42.793Z,6.88
2023-02-13T15:35:33.035Z,6.32
2023-02-13T15:38:00.538Z,5.18
2023-02-13T15:40:29.996Z,5.25
2023-02-13T15:42:57.675Z,5.53
2023-02-13T15:45:26.742Z,5.43
2023-02-13T15:47:53.637Z,6.57
2023-02-13T15:50:32.059Z,5.57
2023-02-13T15:53:01.060Z,6.32
2023-02-13T15:55:30.151Z,9.90
2023-02-13T15:57:58.754Z,6.53
2023-02-13T16:00:28.741Z,6.05
2023-02-13T16:02:57.537Z,5.53
2023-02-13T16:05:39.519Z,6.38
2023-02-13T16:08:30.214Z,6.00
2023-02-13T16:11:15.460Z,6.18
2023-02-13T16:14:11.109Z,6.57
2023-02-13T16:16:49.816Z,7.03
2023-02-13T16:19:29.947Z,6.28
2023-02-13T16:21:58.999Z,6.63
2023-02-13T16:24:26.684Z,6.18
2023-02-13T16:26:53.797Z,5.95
2023-02-13T16:29:22.937Z,6.88
2023-02-13T16:31:50.577Z,5.38
2023-02-13T16:34:29.246Z,5.63
2023-02-13T16:36:57.292Z,5.63
2023-02-13T16:39:29.117Z,6.05
2023-02-13T16:41:57.311Z,7.07
2023-02-13T16:44:24.869Z,6.82
2023-02-13T16:46:54.188Z,7.78
2023-02-13T16:49:22.846Z,7.57
2023-02-13T16:51:59.025Z,6.85
2023-02-13T16:54:29.701Z,6.70
2023-02-13T16:56:59.396Z,7.50
2023-02-13T16:59:28.946Z,7.50
2023-02-13T17:02:14.469Z,8.75
2023-02-13T17:04:57.215Z,7.10
2023-02-13T17:07:28.737Z,7.10
2023-02-13T17:10:04.657Z,7.38
2023-02-13T17:12:35.964Z,6.93
2023-02-13T17:15:02.750Z,7.80
2023-02-13T17:17:31.700Z,12.73
2023-02-13T17:20:02.354Z,10.18
2023-02-13T17:22:36.423Z,13.82
2023-02-13T17:25:11.563Z,10.50
2023-02-13T17:27:39.244Z,11.23
2023-02-13T17:30:06.520Z,8.52
2023-02-13T17:32:34.147Z,7.43
2023-02-13T17:35:01.684Z,8.38
2023-02-13T17:37:30.136Z,7.38
2023-02-13T17:39:58.927Z,7.68
2023-02-13T17:42:28.271Z,6.68
2023-02-13T17:44:58.700Z,7.25
2023-02-13T17:47:25.908Z,6.03
2023-02-13T17:49:59.173Z,5.82
2023-02-13T17:52:31.513Z,6.18
2023-02-13T17:54:58.103Z,7.22
2023-02-13T17:57:24.783Z,7.80
2023-02-13T17:59:51.322Z,8.02
2023-02-13T18:02:20.814Z,7.47
2023-02-13T18:04:48.452Z,8.10
2023-02-13T18:07:17.880Z,7.97
2023-02-13T18:09:44.765Z,7.90
2023-02-13T18:12:23.025Z,8.77
2023-02-13T18:14:50.394Z,9.43
2023-02-13T18:17:17.663Z,7.97
2023-02-13T18:19:44.743Z,8.02
2023-02-13T18:22:19.483Z,7.03
2023-02-13T18:24:46.077Z,6.53
2023-02-13T18:27:12.782Z,7.90
2023-02-13T18:29:39.652Z,8.18
2023-02-13T18:32:10.200Z,7.53
2023-02-13T18:34:38.346Z,7.53
2023-02-13T18:37:07.011Z,7.32
2023-02-13T18:39:33.921Z,6.90
2023-02-13T18:42:00.532Z,7.53
2023-02-13T18:44:28.850Z,6.97
2023-02-13T18:46:56.025Z,7.85
2023-02-13T18:49:22.881Z,8.90
2023-02-13T18:51:49.701Z,7.53
2023-02-13T18:54:18.035Z,7.75
2023-02-13T18:56:45.715Z,8.77
2023-02-13T18:59:12.394Z,9.23
2023-02-13T19:01:39.495Z,8.00
2023-02-13T19:04:06.665Z,7.75
2023-02-13T19:06:35.086Z,8.00
2023-02-13T19:09:01.803Z,6.95
2023-02-13T19:11:28.542Z,7.75
2023-02-13T19:13:56.850Z,8.60
2023-02-13T19:16:24.526Z,9.02
2023-02-13T19:18:57.312Z,6.80
2023-02-13T19:21:29.933Z,6.53
2023-02-13T19:23:56.878Z,7.85
2023-02-13T19:26:25.669Z,6.45
2023-02-13T19:28:52.730Z,5.70
2023-02-13T19:31:25.495Z,7.10
2023-02-13T19:33:52.539Z,7.22
2023-02-13T19:36:22.795Z,12.20
2023-02-13T19:38:54.614Z,11.73
2023-02-13T19:41:22.715Z,10.27
2023-02-13T19:43:53.589Z,8.77
2023-02-13T19:46:23.184Z,8.35
2023-02-13T19:48:50.463Z,7.43
2023-02-13T19:51:20.422Z,6.72
2023-02-13T19:53:48.326Z,5.65
2023-02-13T19:56:15.009Z,4.00
2023-02-13T19:58:42.652Z,3.70
2023-02-13T20:01:18.039Z,4.68
2023-02-13T20:03:44.577Z,4.15
2023-02-13T20:06:17.144Z,4.68
2023-02-13T20:08:44.799Z,3.50
2023-02-13T20:11:12.811Z,3.80
2023-02-13T20:13:39.775Z,3.88
2023-02-13T20:16:07.957Z,3.92
2023-02-13T20:18:35.577Z,4.22
2023-02-13T20:21:10.244Z,5.22
2023-02-13T20:23:37.336Z,5.70
2023-02-13T20:26:05.398Z,5.25
2023-02-13T20:28:32.206Z,4.55
2023-02-13T20:30:59.344Z,4.93
2023-02-13T20:33:26.924Z,4.88
2023-02-13T20:35:53.438Z,5.38
2023-02-13T20:38:19.999Z,5.90
2023-02-13T20:40:47.540Z,5.10
2023-02-13T20:43:14.257Z,5.93
2023-02-13T20:45:40.774Z,6.50
2023-02-13T20:48:07.482Z,6.05
2023-02-13T20:50:34.070Z,5.70
2023-02-13T20:53:00.796Z,6.10
2023-02-13T20:55:27.433Z,7.18
2023-02-13T20:57:54.293Z,6.90
2023-02-13T21:00:21.180Z,5.93
2023-02-13T21:02:47.810Z,6.53
2023-02-13T21:05:14.427Z,7.85
2023-02-13T21:07:41.040Z,7.28
2023-02-13T21:10:07.905Z,6.10
2023-02-13T21:12:35.032Z,7.43
2023-02-13T21:15:01.739Z,7.40
2023-02-13T21:17:28.238Z,7.23
2023-02-13T21:19:54.906Z,8.97
2023-02-13T21:22:21.573Z,11.00
2023-02-13T21:24:49.821Z,12.43
2023-02-13T21:27:16.371Z,11.90
2023-02-13T21:29:42.979Z,11.48
2023-02-13T21:32:09.847Z,12.10
2023-02-13T21:34:36.535Z,9.77
2023-02-13T21:37:03.142Z,8.70
2023-02-13T21:39:29.813Z,9.63
2023-02-13T21:41:56.509Z,7.87
2023-02-13T21:44:23.097Z,9.10
2023-02-13T21:46:50.569Z,9.33
2023-02-13T21:49:18.862Z,8.63
2023-02-13T21:51:45.421Z,9.17
2023-02-13T21:54:12.307Z,9.60
2023-02-13T21:56:41.309Z,10.87
2023-02-13T21:59:07.972Z,14.30
2023-02-13T22:01:36.870Z,14.27
2023-02-13T22:04:07.985Z,18.20
2023-02-13T22:06:36.836Z,19.63
2023-02-13T22:09:07.838Z,18.67
2023-02-13T22:11:35.705Z,19.77
2023-02-13T22:14:04.189Z,18.40
2023-02-13T22:16:32.424Z,19.10
2023-02-13T22:19:00.105Z,19.40
2023-02-13T22:21:28.824Z,19.60
2023-02-13T22:23:55.872Z,20.10
2023-02-13T22:26:34.350Z,17.50
2023-02-13T22:29:06.576Z,18.10
2023-02-13T22:31:33.743Z,16.60
2023-02-13T22:34:05.024Z,17.00
2023-02-13T22:36:40.494Z,14.60
2023-02-13T22:39:08.812Z,17.40
2023-02-13T22:41:35.691Z,17.47
2023-02-13T22:44:02.547Z,17.73
2023-02-13T22:46:31.366Z,18.92
2023-02-13T22:49:00.830Z,21.27
2023-02-13T22:51:31.323Z,19.25
2023-02-13T22:53:58.727Z,19.67
2023-02-13T22:56:26.887Z,16.58
2023-02-13T22:58:53.530Z,16.48
2023-02-13T23:01:30.553Z,16.38
2023-02-13T23:03:57.603Z,18.73
2023-02-13T23:06:25.231Z,17.95
2023-02-13T23:08:54.724Z,18.10
2023-02-13T23:11:44.374Z,15.20
2023-02-13T23:14:11.480Z,15.63
2023-02-13T23:16:57.644Z,15.65
2023-02-13T23:19:25.559Z,18.08
2023-02-13T23:21:52.052Z,14.27
2023-02-13T23:24:18.650Z,20.08
2023-02-13T23:26:45.219Z,15.17
2023-02-13T23:29:11.958Z,15.80
2023-02-13T23:31:38.495Z,15.52
2023-02-13T23:34:05.272Z,15.80
2023-02-13T23:36:31.860Z,17.65
2023-02-13T23:38:58.426Z,11.60
2023-02-13T23:41:25.128Z,11.43
2023-02-13T23:43:51.798Z,11.27
2023-02-13T23:46:18.432Z,12.48
2023-02-13T23:48:46.206Z,11.10
2023-02-13T23:51:12.782Z,10.20
2023-02-13T23:53:39.434Z,10.05
2023-02-13T23:56:06.576Z,10.13
2023-02-13T23:58:33.139Z,9.43
